createdAt,value
2019-05-18T00:01:42.276Z,23.67
2019-05-18T00:04:11.608Z,24.30
2019-05-18T00:06:40.875Z,20.70
2019-05-18T00:09:10.187Z,22.33
2019-05-18T00:11:39.480Z,22.97
2019-05-18T00:14:08.867Z,19.87
2019-05-18T00:16:38.347Z,20.20
2019-05-18T00:19:07.716Z,20.93
2019-05-18T00:21:37.023Z,21.93
2019-05-18T00:24:06.482Z,21.17
2019-05-18T00:26:35.760Z,20.87
2019-05-18T00:29:05.146Z,22.83
2019-05-18T00:31:34.480Z,24.13
2019-05-18T00:34:03.911Z,23.83
2019-05-18T00:36:33.258Z,21.43
2019-05-18T00:39:02.577Z,24.47
2019-05-18T00:41:31.787Z,23.17
2019-05-18T00:44:01.157Z,22.40
2019-05-18T00:46:30.485Z,23.63
2019-05-18T00:49:00.618Z,22.50
2019-05-18T00:51:30.360Z,24.03
2019-05-18T00:53:59.762Z,23.80
2019-05-18T00:56:29.119Z,25.20
2019-05-18T00:58:58.449Z,24.63
2019-05-18T01:01:27.817Z,24.17
2019-05-18T01:03:57.011Z,22.97
2019-05-18T01:06:26.323Z,22.03
2019-05-18T01:08:55.694Z,22.63
2019-05-18T01:11:24.996Z,24.83
2019-05-18T01:13:54.339Z,22.90
2019-05-18T01:16:23.761Z,24.07
2019-05-18T01:18:53.136Z,23.30
2019-05-18T01:21:22.483Z,23.17
2019-05-18T01:23:54.935Z,23.70
2019-05-18T01:26:24.317Z,21.67
2019-05-18T01:28:57.406Z,22.93
2019-05-18T01:31:26.833Z,24.77
2019-05-18T01:33:56.160Z,23.10
2019-05-18T01:36:25.393Z,23.30
2019-05-18T01:38:54.705Z,23.47
2019-05-18T01:41:24.186Z,22.20
2019-05-18T01:43:53.541Z,25.53
2019-05-18T01:46:22.863Z,21.07
2019-05-18T01:48:52.173Z,24.47
2019-05-18T01:51:21.367Z,24.50
2019-05-18T01:53:50.783Z,23.43
2019-05-18T01:56:20.019Z,24.50
2019-05-18T01:58:49.331Z,24.60
2019-05-18T02:01:18.720Z,21.90
2019-05-18T02:03:47.943Z,21.07
2019-05-18T02:06:17.285Z,23.23
2019-05-18T02:08:46.644Z,24.10
2019-05-18T02:11:15.961Z,22.23
2019-05-18T02:13:45.316Z,23.80
2019-05-18T02:16:14.744Z,21.43
2019-05-18T02:18:44.124Z,22.10
2019-05-18T02:21:13.562Z,24.43
2019-05-18T02:23:42.936Z,25.60
2019-05-18T02:26:12.228Z,23.10
2019-05-18T02:28:41.746Z,22.90
2019-05-18T02:31:11.130Z,24.77
2019-05-18T02:33:40.460Z,21.67
2019-05-18T02:36:09.827Z,23.40
2019-05-18T02:38:39.282Z,22.07
2019-05-18T02:41:08.674Z,22.07
2019-05-18T02:43:38.026Z,21.17
2019-05-18T02:46:07.366Z,20.43
2019-05-18T02:48:49.026Z,23.73
2019-05-18T02:51:11.157Z,22.03
2019-05-18T02:53:38.627Z,23.43
2019-05-18T02:56:07.937Z,23.63
2019-05-18T02:58:37.259Z,23.13
2019-05-18T03:01:06.691Z,21.77
2019-05-18T03:03:36.106Z,24.70
2019-05-18T03:06:05.683Z,22.53
2019-05-18T03:08:34.955Z,24.87
2019-05-18T03:11:04.619Z,24.43
2019-05-18T03:13:34.052Z,22.33
2019-05-18T03:16:03.501Z,21.20
2019-05-18T03:18:32.875Z,25.17
2019-05-18T03:21:02.266Z,20.30
2019-05-18T03:23:31.615Z,22.07
2019-05-18T03:26:00.936Z,22.83
2019-05-18T03:28:30.307Z,20.60
2019-05-18T03:30:59.682Z,23.13
2019-05-18T03:33:30.378Z,23.30
2019-05-18T03:36:00.040Z,23.60
2019-05-18T03:38:29.442Z,22.93
2019-05-18T03:40:58.807Z,22.20
2019-05-18T03:43:28.152Z,23.27
2019-05-18T03:45:57.558Z,25.83
2019-05-18T03:48:26.860Z,24.33
2019-05-18T03:50:56.211Z,26.03
2019-05-18T03:53:25.576Z,19.13
2019-05-18T03:55:54.886Z,20.87
2019-05-18T03:58:24.280Z,21.10
2019-05-18T04:00:53.580Z,22.03
2019-05-18T04:03:22.957Z,18.97
2019-05-18T04:05:52.722Z,22.53
2019-05-18T04:08:22.146Z,21.53
2019-05-18T04:10:51.537Z,17.10
2019-05-18T04:13:21.116Z,24.00
2019-05-18T04:15:50.404Z,23.33
2019-05-18T04:18:19.687Z,24.47
2019-05-18T04:20:49.092Z,19.07
2019-05-18T04:23:18.372Z,20.63
2019-05-18T04:25:47.859Z,22.70
2019-05-18T04:28:17.156Z,24.30
2019-05-18T04:30:46.489Z,22.13
2019-05-18T04:33:15.869Z,21.97
2019-05-18T04:35:45.225Z,22.97
2019-05-18T04:38:14.614Z,19.60
2019-05-18T04:40:43.946Z,23.13
2019-05-18T04:43:13.185Z,23.13
2019-05-18T04:45:42.444Z,23.73
2019-05-18T04:48:11.746Z,21.63
2019-05-18T04:50:41.111Z,25.27
2019-05-18T04:53:10.355Z,21.17
2019-05-18T04:55:39.785Z,25.27
2019-05-18T04:58:09.074Z,22.23
2019-05-18T05:00:38.438Z,25.10
2019-05-18T05:03:07.842Z,26.23
2019-05-18T05:05:37.237Z,21.70
2019-05-18T05:08:06.712Z,22.53
2019-05-18T05:10:36.028Z,21.97
2019-05-18T05:13:05.394Z,21.47
2019-05-18T05:15:34.844Z,25.63
2019-05-18T05:18:04.347Z,23.13
2019-05-18T05:20:33.765Z,23.10
2019-05-18T05:23:03.238Z,27.97
2019-05-18T05:25:32.766Z,24.40
2019-05-18T05:28:02.164Z,21.07
2019-05-18T05:30:31.655Z,26.27
2019-05-18T05:33:00.940Z,24.07
2019-05-18T05:35:30.379Z,27.40
2019-05-18T05:37:59.785Z,24.53
2019-05-18T05:40:29.085Z,28.03
2019-05-18T05:42:58.388Z,26.83
2019-05-18T05:45:27.663Z,24.90
2019-05-18T05:47:57.398Z,28.33
2019-05-18T05:50:35.210Z,28.17
2019-05-18T05:52:57.898Z,26.90
2019-05-18T05:55:27.256Z,28.13
2019-05-18T05:57:56.619Z,26.83
2019-05-18T06:00:25.973Z,29.57
2019-05-18T06:02:55.283Z,29.13
2019-05-18T06:05:24.608Z,31.60
2019-05-18T06:07:56.562Z,29.70
2019-05-18T06:10:25.981Z,31.47
2019-05-18T06:12:55.439Z,28.43
2019-05-18T06:15:24.918Z,30.47
2019-05-18T06:17:54.334Z,29.53
2019-05-18T06:20:23.687Z,29.43
2019-05-18T06:22:53.293Z,28.30
2019-05-18T06:25:22.805Z,30.63
2019-05-18T06:27:52.091Z,32.20
2019-05-18T06:30:21.590Z,30.87
2019-05-18T06:32:51.061Z,29.53
2019-05-18T06:35:21.392Z,28.57
2019-05-18T06:37:50.972Z,30.93
2019-05-18T06:40:20.464Z,30.27
2019-05-18T06:42:49.877Z,31.13
2019-05-18T06:45:19.318Z,32.37
2019-05-18T06:47:48.677Z,32.07
2019-05-18T06:50:23.404Z,30.10
2019-05-18T06:52:52.809Z,30.40
2019-05-18T06:55:22.238Z,29.87
2019-05-18T06:57:52.279Z,31.77
2019-05-18T07:00:21.637Z,30.40
2019-05-18T07:02:51.041Z,32.80
2019-05-18T07:05:20.542Z,29.00
2019-05-18T07:07:51.550Z,33.23
2019-05-18T07:10:21.102Z,30.87
2019-05-18T07:12:52.454Z,31.43
2019-05-18T07:15:21.912Z,32.73
2019-05-18T07:17:51.269Z,32.23
2019-05-18T07:20:23.712Z,32.57
2019-05-18T07:22:53.181Z,31.00
2019-05-18T07:25:22.798Z,31.63
2019-05-18T07:27:53.354Z,31.47
2019-05-18T07:30:22.769Z,29.37
2019-05-18T07:32:52.431Z,30.37
2019-05-18T07:35:23.766Z,28.90
2019-05-18T07:37:53.384Z,29.00
2019-05-18T07:40:23.040Z,29.97
2019-05-18T07:42:52.572Z,29.03
2019-05-18T07:45:22.004Z,28.53
2019-05-18T07:47:51.445Z,28.93
2019-05-18T07:50:20.906Z,27.93
2019-05-18T07:52:55.130Z,28.60
2019-05-18T07:55:24.366Z,27.20
2019-05-18T07:57:56.550Z,27.77
2019-05-18T08:00:36.182Z,28.70
2019-05-18T08:03:05.678Z,25.73
2019-05-18T08:05:35.169Z,28.00
2019-05-18T08:08:04.467Z,25.93
2019-05-18T08:10:38.583Z,25.30
2019-05-18T08:13:09.226Z,25.47
2019-05-18T08:15:39.043Z,23.97
2019-05-18T08:18:08.322Z,28.40
2019-05-18T08:20:37.734Z,24.90
2019-05-18T08:23:08.447Z,24.77
2019-05-18T08:25:37.698Z,23.83
2019-05-18T08:28:07.118Z,24.23
2019-05-18T08:30:37.008Z,24.33
2019-05-18T08:33:06.535Z,21.93
2019-05-18T08:35:40.896Z,22.83
2019-05-18T08:38:32.256Z,21.80
2019-05-18T08:41:16.540Z,22.77
2019-05-18T08:43:46.116Z,22.87
2019-05-18T08:46:15.652Z,24.40
2019-05-18T08:48:44.943Z,23.13
2019-05-18T08:51:14.328Z,22.40
2019-05-18T08:53:43.698Z,23.73
2019-05-18T08:56:13.333Z,22.07
2019-05-18T08:58:42.867Z,25.00
2019-05-18T09:01:12.687Z,23.03
2019-05-18T09:03:47.381Z,22.63
2019-05-18T09:06:17.089Z,22.63
2019-05-18T09:08:46.955Z,23.27
2019-05-18T09:11:16.467Z,23.37
2019-05-18T09:13:46.026Z,23.10
2019-05-18T09:16:15.627Z,24.40
2019-05-18T09:18:47.575Z,23.87
2019-05-18T09:21:17.144Z,22.77
2019-05-18T09:23:46.691Z,22.53
2019-05-18T09:26:19.006Z,24.50
2019-05-18T09:28:48.476Z,20.57
2019-05-18T09:31:17.909Z,23.70
2019-05-18T09:33:50.090Z,23.53
2019-05-18T09:36:21.760Z,25.00
2019-05-18T09:39:07.999Z,24.50
2019-05-18T09:41:33.566Z,23.47
2019-05-18T09:44:13.655Z,22.10
2019-05-18T09:46:43.998Z,21.20
2019-05-18T09:49:15.337Z,23.10
2019-05-18T09:51:45.434Z,21.53
2019-05-18T09:54:15.260Z,21.80
2019-05-18T09:56:51.060Z,23.00
2019-05-18T09:59:30.415Z,21.83
2019-05-18T10:02:09.873Z,20.63
2019-05-18T10:04:45.853Z,20.20
2019-05-18T10:07:34.510Z,18.53
2019-05-18T10:10:14.798Z,19.80
2019-05-18T10:12:45.942Z,20.87
2019-05-18T10:15:39.951Z,22.60
2019-05-18T10:18:37.976Z,23.07
2019-05-18T10:21:17.474Z,21.63
2019-05-18T10:23:52.892Z,24.60
2019-05-18T10:26:24.455Z,22.03
2019-05-18T10:28:55.740Z,22.73
2019-05-18T10:31:25.611Z,20.80
2019-05-18T10:33:56.241Z,21.70
2019-05-18T10:36:26.307Z,23.00
2019-05-18T10:39:16.255Z,22.50
2019-05-18T10:41:52.108Z,21.43
2019-05-18T10:44:23.582Z,20.60
2019-05-18T10:47:00.113Z,18.73
2019-05-18T10:49:37.209Z,21.83
2019-05-18T10:52:06.052Z,22.13
2019-05-18T10:54:43.871Z,22.27
2019-05-18T10:57:16.798Z,21.57
2019-05-18T10:59:48.342Z,22.32
2019-05-18T11:02:17.866Z,22.48
2019-05-18T11:04:47.356Z,19.23
2019-05-18T11:07:19.351Z,19.90
2019-05-18T11:09:54.129Z,21.60
2019-05-18T11:12:27.869Z,23.73
2019-05-18T11:15:06.065Z,21.93
2019-05-18T11:17:37.614Z,22.93
2019-05-18T11:20:07.778Z,19.05
2019-05-18T11:22:37.406Z,21.60
2019-05-18T11:25:08.039Z,22.13
2019-05-18T11:27:37.785Z,20.85
2019-05-18T11:30:07.887Z,20.80
2019-05-18T11:32:41.856Z,20.00
2019-05-18T11:35:12.454Z,17.82
2019-05-18T11:37:41.975Z,19.77
2019-05-18T11:40:13.177Z,23.42
2019-05-18T11:42:49.091Z,21.05
2019-05-18T11:45:20.353Z,20.88
2019-05-18T11:47:58.073Z,21.07
2019-05-18T11:50:30.886Z,21.12
2019-05-18T11:53:07.034Z,20.62
2019-05-18T11:55:39.136Z,20.92
2019-05-18T11:58:15.334Z,22.77
2019-05-18T12:00:48.253Z,21.77
2019-05-18T12:03:18.648Z,22.10
2019-05-18T12:05:53.816Z,22.30
2019-05-18T12:08:26.332Z,23.50
2019-05-18T12:10:57.003Z,21.73
2019-05-18T12:13:35.684Z,19.77
2019-05-18T12:16:05.091Z,22.77
2019-05-18T12:18:37.723Z,23.10
2019-05-18T12:21:11.206Z,27.42
2019-05-18T12:23:40.801Z,26.68
2019-05-18T12:26:23.299Z,26.65
2019-05-18T12:28:53.066Z,27.80
2019-05-18T12:31:22.880Z,27.75
2019-05-18T12:33:53.003Z,28.90
2019-05-18T12:36:22.569Z,30.40
2019-05-18T12:38:52.083Z,28.60
2019-05-18T12:41:47.724Z,27.77
2019-05-18T12:44:17.319Z,29.12
2019-05-18T12:46:48.523Z,28.02
2019-05-18T12:49:21.508Z,30.33
2019-05-18T12:51:53.826Z,30.83
2019-05-18T12:54:30.807Z,29.40
2019-05-18T12:56:54.991Z,31.63
2019-05-18T12:59:26.707Z,29.13
2019-05-18T13:01:57.654Z,28.73
2019-05-18T13:04:27.028Z,31.30
2019-05-18T13:06:56.578Z,31.33
2019-05-18T13:09:27.876Z,33.23
2019-05-18T13:11:57.311Z,29.83
2019-05-18T13:14:28.083Z,33.17
2019-05-18T13:17:00.501Z,31.25
2019-05-18T13:19:33.260Z,33.08
2019-05-18T13:22:03.981Z,33.40
2019-05-18T13:24:44.898Z,31.30
2019-05-18T13:27:13.832Z,31.57
2019-05-18T13:29:50.447Z,32.83
2019-05-18T13:32:20.177Z,32.15
2019-05-18T13:34:51.351Z,32.38
2019-05-18T13:37:28.741Z,30.80
2019-05-18T13:39:58.618Z,30.15
2019-05-18T13:42:31.421Z,30.57
2019-05-18T13:45:02.900Z,32.78
2019-05-18T13:47:32.395Z,32.93
2019-05-18T13:50:02.032Z,30.82
2019-05-18T13:52:31.614Z,31.20
2019-05-18T13:55:04.496Z,32.15
2019-05-18T13:57:35.647Z,28.67
2019-05-18T14:00:07.200Z,31.00
2019-05-18T14:02:36.881Z,32.03
2019-05-18T14:05:12.332Z,32.45
2019-05-18T14:07:44.397Z,29.77
2019-05-18T14:10:14.205Z,33.48
2019-05-18T14:12:46.112Z,30.65
2019-05-18T14:15:15.819Z,30.20
2019-05-18T14:17:45.287Z,31.87
2019-05-18T14:20:31.967Z,33.38
2019-05-18T14:23:04.490Z,32.75
2019-05-18T14:25:37.661Z,32.60
2019-05-18T14:28:09.864Z,31.77
2019-05-18T14:30:43.489Z,32.13
2019-05-18T14:33:12.969Z,30.95
2019-05-18T14:35:45.661Z,30.77
2019-05-18T14:38:15.123Z,28.07
2019-05-18T14:40:46.068Z,35.17
2019-05-18T14:43:15.461Z,32.98
2019-05-18T14:45:45.054Z,30.37
2019-05-18T14:48:14.372Z,32.48
2019-05-18T14:50:45.076Z,32.65
2019-05-18T14:53:14.618Z,34.63
2019-05-18T14:55:44.153Z,33.90
2019-05-18T14:58:13.604Z,33.28
2019-05-18T15:00:43.373Z,31.90
2019-05-18T15:03:12.883Z,32.33
2019-05-18T15:05:42.292Z,33.85
2019-05-18T15:08:11.862Z,31.77
2019-05-18T15:10:41.305Z,35.05
2019-05-18T15:13:13.497Z,34.27
2019-05-18T15:15:42.747Z,36.38
2019-05-18T15:18:12.229Z,33.50
2019-05-18T15:20:41.830Z,37.05
2019-05-18T15:23:11.290Z,35.97
2019-05-18T15:25:50.145Z,35.50
2019-05-18T15:28:11.843Z,33.73
2019-05-18T15:30:41.156Z,33.87
2019-05-18T15:33:10.432Z,34.83
2019-05-18T15:35:39.787Z,36.57
2019-05-18T15:38:11.795Z,35.23
2019-05-18T15:40:41.171Z,35.07
2019-05-18T15:43:12.469Z,37.00
2019-05-18T15:45:41.874Z,36.93
2019-05-18T15:48:11.379Z,35.53
2019-05-18T15:50:40.905Z,35.03
2019-05-18T15:53:10.336Z,37.13
2019-05-18T15:55:39.876Z,35.90
2019-05-18T15:58:09.362Z,35.90
2019-05-18T16:00:38.918Z,39.03
2019-05-18T16:03:13.055Z,38.07
2019-05-18T16:05:42.516Z,39.50
2019-05-18T16:08:11.897Z,36.93
2019-05-18T16:10:41.167Z,38.43
2019-05-18T16:13:10.467Z,39.30
2019-05-18T16:15:39.783Z,35.20
2019-05-18T16:18:09.080Z,36.63
2019-05-18T16:20:38.405Z,38.80
2019-05-18T16:23:07.764Z,36.57
2019-05-18T16:25:39.285Z,35.37
2019-05-18T16:28:16.038Z,34.67
2019-05-18T16:30:45.858Z,37.93
2019-05-18T16:33:15.744Z,35.73
2019-05-18T16:35:46.020Z,34.60
2019-05-18T16:38:15.484Z,33.77
2019-05-18T16:40:45.037Z,35.03
2019-05-18T16:43:14.686Z,33.23
2019-05-18T16:45:50.192Z,32.73
2019-05-18T16:48:19.845Z,30.47
2019-05-18T16:50:51.509Z,30.67
2019-05-18T16:53:20.863Z,30.37
2019-05-18T16:55:53.547Z,29.73
2019-05-18T16:58:30.261Z,30.63
2019-05-18T17:00:59.652Z,31.27
2019-05-18T17:03:36.534Z,30.73
2019-05-18T17:06:12.225Z,33.27
2019-05-18T17:08:41.697Z,30.13
2019-05-18T17:11:11.208Z,28.67
2019-05-18T17:13:40.545Z,29.03
2019-05-18T17:16:09.897Z,30.13
2019-05-18T17:18:39.299Z,29.00
2019-05-18T17:21:11.273Z,29.07
2019-05-18T17:23:45.649Z,29.27
2019-05-18T17:26:16.287Z,28.40
2019-05-18T17:28:48.507Z,27.43
2019-05-18T17:31:20.845Z,30.00
2019-05-18T17:33:50.220Z,28.27
2019-05-18T17:36:21.072Z,30.40
2019-05-18T17:38:52.913Z,29.60
2019-05-18T17:41:25.880Z,30.53
2019-05-18T17:43:55.289Z,30.30
2019-05-18T17:46:24.689Z,30.83
2019-05-18T17:48:54.022Z,30.93
2019-05-18T17:51:23.263Z,30.03
2019-05-18T17:53:54.264Z,30.70
2019-05-18T17:56:23.511Z,29.67
2019-05-18T17:58:52.963Z,33.03
2019-05-18T18:01:22.351Z,31.13
2019-05-18T18:03:51.709Z,30.93
2019-05-18T18:06:21.010Z,30.17
2019-05-18T18:08:50.213Z,33.50
2019-05-18T18:11:19.406Z,30.87
2019-05-18T18:13:48.723Z,29.77
2019-05-18T18:16:18.083Z,28.60
2019-05-18T18:18:47.469Z,28.23
2019-05-18T18:21:18.638Z,28.73
2019-05-18T18:23:54.201Z,27.23
2019-05-18T18:26:19.134Z,26.37
2019-05-18T18:28:48.462Z,26.13
2019-05-18T18:31:17.810Z,25.10
2019-05-18T18:33:47.001Z,28.40
2019-05-18T18:36:16.300Z,25.00
2019-05-18T18:38:45.612Z,24.30
2019-05-18T18:41:16.624Z,25.00
2019-05-18T18:43:47.976Z,25.03
2019-05-18T18:46:17.345Z,23.47
2019-05-18T18:48:46.615Z,24.87
2019-05-18T18:51:16.295Z,25.60
2019-05-18T18:53:45.574Z,25.00
2019-05-18T18:56:18.382Z,25.67
2019-05-18T18:58:47.856Z,25.53
2019-05-18T19:01:17.179Z,25.10
2019-05-18T19:03:46.620Z,27.03
2019-05-18T19:06:15.871Z,27.83
2019-05-18T19:08:45.074Z,25.60
2019-05-18T19:11:14.443Z,26.50
2019-05-18T19:13:45.855Z,24.97
2019-05-18T19:16:14.846Z,26.90
2019-05-18T19:18:44.278Z,27.00
2019-05-18T19:21:13.558Z,29.80
2019-05-18T19:23:42.853Z,26.40
2019-05-18T19:26:12.263Z,27.17
2019-05-18T19:28:42.343Z,26.70
2019-05-18T19:31:11.546Z,28.50
2019-05-18T19:33:40.988Z,26.97
2019-05-18T19:36:10.265Z,27.33
2019-05-18T19:38:39.596Z,28.63
2019-05-18T19:41:08.835Z,27.53
2019-05-18T19:43:38.122Z,29.07
2019-05-18T19:46:07.428Z,28.23
2019-05-18T19:48:36.855Z,29.53
2019-05-18T19:51:06.091Z,28.40
2019-05-18T19:53:35.503Z,30.00
2019-05-18T19:56:04.720Z,29.43
2019-05-18T19:58:34.112Z,28.93
2019-05-18T20:01:03.411Z,27.10
2019-05-18T20:03:32.869Z,29.73
2019-05-18T20:06:02.243Z,28.80
2019-05-18T20:08:31.453Z,29.20
2019-05-18T20:11:00.789Z,30.23
2019-05-18T20:13:30.187Z,30.47
2019-05-18T20:15:59.463Z,29.97
2019-05-18T20:18:28.889Z,30.57
2019-05-18T20:20:58.241Z,29.73
2019-05-18T20:23:27.543Z,30.33
2019-05-18T20:25:56.948Z,32.00
2019-05-18T20:28:26.145Z,30.50
2019-05-18T20:30:55.459Z,31.10
2019-05-18T20:33:24.790Z,28.90
2019-05-18T20:35:54.061Z,30.43
2019-05-18T20:38:23.347Z,28.83
2019-05-18T20:40:52.686Z,28.20
2019-05-18T20:43:22.019Z,29.20
2019-05-18T20:45:52.433Z,30.97
2019-05-18T20:48:21.873Z,28.93
2019-05-18T20:50:51.211Z,29.47
2019-05-18T20:53:20.483Z,30.40
2019-05-18T20:55:49.915Z,30.77
2019-05-18T20:58:19.269Z,31.70
2019-05-18T21:00:54.312Z,29.53
2019-05-18T21:03:23.881Z,31.67
2019-05-18T21:05:53.326Z,30.40
2019-05-18T21:08:22.807Z,31.10
2019-05-18T21:10:52.229Z,31.67
2019-05-18T21:13:21.564Z,31.43
2019-05-18T21:15:50.947Z,31.33
2019-05-18T21:18:20.368Z,30.30
2019-05-18T21:20:49.610Z,32.10
2019-05-18T21:23:18.886Z,31.73
2019-05-18T21:25:48.052Z,33.50
2019-05-18T21:28:17.413Z,33.77
2019-05-18T21:30:46.806Z,33.10
2019-05-18T21:33:16.130Z,34.57
2019-05-18T21:35:46.608Z,34.00
2019-05-18T21:38:19.870Z,33.63
2019-05-18T21:40:49.174Z,34.17
2019-05-18T21:43:18.409Z,33.67
2019-05-18T21:45:47.637Z,35.67
2019-05-18T21:48:16.914Z,34.93
2019-05-18T21:50:46.959Z,36.17
2019-05-18T21:53:16.402Z,35.20
2019-05-18T21:55:45.801Z,33.80
2019-05-18T21:58:15.133Z,37.33
2019-05-18T22:00:47.456Z,36.53
2019-05-18T22:03:16.784Z,35.27
2019-05-18T22:05:47.749Z,36.13
2019-05-18T22:08:17.047Z,37.77
2019-05-18T22:10:46.407Z,37.50
2019-05-18T22:13:15.625Z,38.00
2019-05-18T22:15:44.986Z,39.50
2019-05-18T22:18:23.985Z,39.10
2019-05-18T22:20:45.209Z,36.77
2019-05-18T22:23:14.602Z,36.60
2019-05-18T22:25:43.956Z,36.30
2019-05-18T22:28:13.341Z,37.60
2019-05-18T22:30:42.729Z,38.87
2019-05-18T22:33:14.142Z,38.13
2019-05-18T22:35:43.491Z,38.17
2019-05-18T22:38:12.672Z,38.43
2019-05-18T22:40:41.958Z,38.20
2019-05-18T22:43:11.283Z,37.27
2019-05-18T22:45:40.570Z,39.30
2019-05-18T22:48:09.948Z,39.50
2019-05-18T22:50:39.232Z,38.60
2019-05-18T22:53:08.410Z,39.63
2019-05-18T22:55:37.918Z,39.60
2019-05-18T22:58:07.194Z,37.40
2019-05-18T23:00:36.575Z,39.07
2019-05-18T23:03:05.903Z,40.60
2019-05-18T23:05:35.375Z,38.23
2019-05-18T23:08:04.590Z,37.70
2019-05-18T23:10:33.882Z,39.47
2019-05-18T23:13:03.263Z,38.20
2019-05-18T23:15:32.588Z,39.47
2019-05-18T23:18:01.985Z,36.93
2019-05-18T23:20:31.232Z,37.87
2019-05-18T23:23:00.607Z,38.20
2019-05-18T23:25:29.908Z,39.60
2019-05-18T23:27:59.320Z,41.43
2019-05-18T23:30:28.667Z,38.77
2019-05-18T23:32:58.059Z,41.17
2019-05-18T23:35:27.361Z,40.97
2019-05-18T23:37:56.687Z,41.20
2019-05-18T23:40:25.974Z,38.07
2019-05-18T23:42:55.369Z,40.97
2019-05-18T23:45:24.760Z,39.40
2019-05-18T23:47:54.124Z,39.50
2019-05-18T23:50:23.492Z,40.60
2019-05-18T23:52:54.303Z,41.07
2019-05-18T23:55:23.593Z,42.70
2019-05-18T23:57:52.897Z,41.17
